Warning: Javascript must be enabled to use all the features on this page!


Page Loading - Please Wait...

Click to hideNews Bulletins

Peak Streamflow for the Nation

USGS 09310500 FISH CREEK ABOVE RESERVOIR, NEAR SCOFIELD, UT

Carbon County, Utah
Hydrologic Unit Code 14060007
Latitude  39°46'28", Longitude 111°11'25" NAD27
Drainage area 60.1  square miles
Gage datum 7,670.00 feet above NGVD29
Output formats
Table
Graph
Tab-separated file
peakfq (watstore) format
Reselect output format
Water
Year
Date Gage
Height
(feet)
Stream-
flow
(cfs)
1932 1932-05-19 3.776 673
1933 1933-06-02 4.106  
1939 1939-04-30 2.296 261
1940 1940-05-13 3.003 520
1941 1941-05-13 3.113 645
1942 1942-05-26 3.103 629
1943 1943-06-01 2.433 342
1944 1944-05-15 3.003 577
1945 1945-05-11 3.083 629
1946 1946-04-26 2.483 412
1947 1947-05-04 3.083 622
1948 1948-05-17 2.553 414
1949 1949-05-17 2.943 594
1950 1950-05-23 2.663 463
1951 1951-05-20 2.373 433
1952 1952-05-14 3.623 1,070
1953 1953-05-28 2.523 492
1954 1954-05-08 1.533 213
1955 1955-05-12 2.483 448
1956 1956-05-06 2.453 448
1957 1957-06-04 3.653 818
1958 1958-05-23 3.633 868
1959 1959-05-14 1.986 221
1960 1960-05-13 2.863 479
1961 1961-05-12 1.433 122
1962 1962-05-07   6601
1963 1963-05-19 2.643 382
1964 1964-05-23 3.543 710
1965 1965-05-21 3.583 717
1966 1966-05-10 2.083 295
1967 1967-05-27 3.683 744
1968 1968-05-30 4.60 756
1969 1969-05-14 4.55 752
1970 1970-05-19 4.20 639
1971 1971-05-15 3.93 659
1972 1972-05-08 2.78 229
1973 1973-05-20 4.87 1,160
1974 1974-05-09 4.35 874
1975 1975-06-05 4.87 1,030
1976 1976-05-14 3.51 457
1977 1977-04-17   74.01
1978 1978-05-23 4.12 729
1979 1979-05-20 4.87 715
1980 1980-05-23 4.58 997
1981 1981-05-03 2.90 282
1982 1982-05-27   6151
1983 1983-05-30 5.91 1,310
1984 1984-05-21 6.20 1,450
1985 1985-05-04 4.14 709
1986 1986-05-21 4.27 820
1987 1987-05-02 1.97 188
1988 1988-04-30 3.67 592
1989 1989-05-09 2.54 218
1990 1990-05-08 2.48 226
1991 1991-05-22 3.40 523
1992 1992-04-28 1.53 92.0
1993 1993-05-21 4.96 1,050
1994 1994-05-13 2.50 268
1995 1995-05-21 3.91 674
1996 1996-05-15 4.15 758
1997 1997-05-17 4.37 842
1998 1998-05-21 3.41 496
1999 1999-05-24 3.87 641
2000 2000-05-04 2.37 268
2001 2001-05-01 2.48 273
2002 2002-05-07 2.18 190
2003 2003-05-18 3.11 455
2004 2004-05-05 2.37 258
2005 2005-05-23 4.74 1,160
2006 2006-05-15 4.02 826
2007 2007-05-03 2.22 182
2008 2008-05-20 3.97 801
2009 2009-05-07 3.89 566
2010 2010-05-21 3.17 384
2011 2011-06-05 4.51 813
2012 2012-04-25 2.43 185
2013 2013-05-13 2.78 242
2014 2014-05-06 2.75 236
2015 2015-04-25 2.48 184
2016 2016-05-10 2.93 319
2017 2017-05-07 4.50 688
2018 2018-04-28 1.86 107
2019 2019-06-07 4.89 880
2020 2020-05-11 2.86 289
2021 2021-05-02 1.502 66.1
?
  Peak Gage-Height Qualification Codes.
?
  Peak Streamflow Qualification Codes.